createdAt,value
2018-11-22T00:01:22.753Z,102945.98
2018-11-22T00:03:55.265Z,102937.70
2018-11-22T00:06:24.833Z,102918.02
2018-11-22T00:08:54.405Z,102920.83
2018-11-22T00:11:23.997Z,102922.35
2018-11-22T00:14:12.388Z,102916.50
2018-11-22T00:16:41.977Z,102911.94
2018-11-22T00:19:11.552Z,102934.13
2018-11-22T00:21:59.893Z,102929.56
2018-11-22T00:24:29.653Z,102935.11
2018-11-22T00:26:59.232Z,102924.94
2018-11-22T00:29:29.093Z,102922.35
2018-11-22T00:31:58.704Z,102914.75
2018-11-22T00:34:28.255Z,102917.56
2018-11-22T00:39:33.460Z,102905.94
2018-11-22T00:42:22.155Z,102899.25
2018-11-22T00:44:51.974Z,102899.94
2018-11-22T00:47:21.628Z,102905.26
2018-11-22T00:49:51.254Z,102902.14
2018-11-22T00:52:20.834Z,102893.70
2018-11-22T00:54:50.442Z,102894.62
2018-11-22T00:57:20.042Z,102893.25
2018-11-22T00:59:49.889Z,102889.00
2018-11-22T01:02:19.534Z,102877.60
2018-11-22T01:05:07.845Z,102876.46
2018-11-22T01:07:56.054Z,102880.72
2018-11-22T01:10:44.338Z,102877.60
2018-11-22T01:13:13.913Z,102878.36
2018-11-22T01:16:02.578Z,102864.16
2018-11-22T01:18:50.798Z,102872.36
2018-11-22T01:24:01.080Z,102855.66
2018-11-22T01:26:31.125Z,102862.26
2018-11-22T01:29:19.379Z,102857.47
2018-11-22T01:32:08.000Z,102858.23
2018-11-22T01:34:37.612Z,102855.58
2018-11-22T01:37:07.199Z,102854.20
2018-11-22T01:39:36.760Z,102836.36
2018-11-22T01:42:06.392Z,102840.23
2018-11-22T01:44:54.613Z,102835.83
2018-11-22T01:47:24.297Z,102842.66
2018-11-22T01:49:53.860Z,102835.83
2018-11-22T01:52:23.470Z,102824.06
2018-11-22T01:55:11.728Z,102820.56
2018-11-22T02:00:35.752Z,102817.53
2018-11-22T02:03:05.726Z,102818.59
2018-11-22T02:05:35.304Z,102817.00
2018-11-22T02:08:04.906Z,102819.05
2018-11-22T02:10:34.489Z,102814.64
2018-11-22T02:13:04.067Z,102808.87
2018-11-22T02:15:33.668Z,102814.25
2018-11-22T02:18:03.363Z,102815.98
2018-11-22T02:20:32.936Z,102822.89
2018-11-22T02:23:02.547Z,102828.05
2018-11-22T02:25:32.121Z,102819.62
2018-11-22T02:28:01.688Z,102817.48
2018-11-22T02:30:31.308Z,102821.05
2018-11-22T02:33:01.583Z,102812.78
2018-11-22T02:35:31.199Z,102805.95
2018-11-22T02:38:00.796Z,102808.69
2018-11-22T02:40:30.443Z,102795.03
2018-11-22T02:42:59.961Z,102800.56
2018-11-22T02:45:30.015Z,102804.12
2018-11-22T02:47:59.598Z,102794.94
2018-11-22T02:50:47.905Z,102782.12
2018-11-22T02:53:17.673Z,102785.45
2018-11-22T02:55:47.243Z,102780.36
2018-11-22T02:58:16.828Z,102774.83
2018-11-22T03:00:47.096Z,102777.78
2018-11-22T03:03:17.425Z,102769.36
2018-11-22T03:05:47.021Z,102769.05
2018-11-22T03:08:16.788Z,102778.87
2018-11-22T03:10:46.367Z,102774.84
2018-11-22T03:13:18.009Z,102767.94
2018-11-22T03:15:47.585Z,102765.73
2018-11-22T03:18:17.500Z,102760.42
2018-11-22T03:20:47.142Z,102767.24
2018-11-22T03:23:16.931Z,102672.22
2018-11-22T03:26:05.171Z,102749.95
2018-11-22T03:34:10.453Z,102743.71
2018-11-22T03:36:40.037Z,102744.31
2018-11-22T03:39:28.355Z,102743.25
2018-11-22T03:42:16.577Z,102748.63
2018-11-22T03:45:05.591Z,102733.60
2018-11-22T03:47:35.240Z,102734.52
2018-11-22T03:50:04.845Z,102725.11
2018-11-22T03:52:34.688Z,102729.59
2018-11-22T03:55:04.489Z,102722.63
2018-11-22T03:57:52.726Z,102719.52
2018-11-22T04:00:24.498Z,102726.27
2018-11-22T04:02:54.584Z,102727.02
2018-11-22T04:05:25.332Z,102721.42
2018-11-22T04:07:54.903Z,102724.16
2018-11-22T04:10:25.999Z,102719.69
2018-11-22T04:12:55.670Z,102720.38
2018-11-22T04:15:44.173Z,102704.52
2018-11-22T04:18:24.857Z,102709.91
2018-11-22T04:21:13.342Z,102706.93
2018-11-22T04:26:31.842Z,102692.96
2018-11-22T04:29:01.599Z,102690.67
2018-11-22T04:31:31.231Z,102683.02
2018-11-22T04:34:01.120Z,102690.90
2018-11-22T04:36:31.073Z,102688.48
2018-11-22T04:39:00.647Z,102680.81
2018-11-22T04:41:49.841Z,102682.41
2018-11-22T04:44:38.054Z,102681.81
2018-11-22T04:47:07.679Z,102668.84
2018-11-22T04:49:37.303Z,102668.84
2018-11-22T04:52:07.176Z,102668.68
2018-11-22T04:54:37.421Z,102675.19
2018-11-22T04:57:07.298Z,102679.22
2018-11-22T04:59:36.890Z,102674.44
2018-11-22T05:02:09.096Z,102679.91
2018-11-22T05:04:57.630Z,102681.66
2018-11-22T05:07:27.222Z,102681.66
2018-11-22T05:09:56.817Z,102678.32
2018-11-22T05:12:26.472Z,102670.37
2018-11-22T05:14:56.069Z,102664.37
2018-11-22T05:17:25.690Z,102663.92
2018-11-22T05:19:55.223Z,102657.26
2018-11-22T05:22:43.467Z,102651.05
2018-11-22T05:25:13.449Z,102642.85
2018-11-22T05:27:43.179Z,102641.80
2018-11-22T05:30:32.326Z,102637.39
2018-11-22T05:33:02.055Z,102651.80
2018-11-22T05:35:31.629Z,102638.22
2018-11-22T05:38:01.253Z,102641.55
2018-11-22T05:40:30.899Z,102635.56
2018-11-22T05:43:00.805Z,102631.47
2018-11-22T05:45:31.305Z,102632.38
2018-11-22T05:48:19.545Z,102623.73
2018-11-22T05:53:32.923Z,102626.16
2018-11-22T05:56:02.674Z,102638.36
2018-11-22T05:58:32.678Z,102639.50
2018-11-22T06:01:02.329Z,102625.69
2018-11-22T06:03:31.947Z,102630.53
2018-11-22T06:06:01.545Z,102622.48
2018-11-22T06:08:31.285Z,102621.80
2018-11-22T06:11:00.975Z,102624.69
2018-11-22T06:13:30.888Z,102623.02
2018-11-22T06:16:00.595Z,102615.83
2018-11-22T06:18:30.278Z,102614.69
2018-11-22T06:20:59.874Z,102605.52
2018-11-22T06:23:29.462Z,102613.32
2018-11-22T06:25:59.037Z,102614.83
2018-11-22T06:28:28.624Z,102605.06
2018-11-22T06:30:58.254Z,102613.85
2018-11-22T06:33:27.842Z,102596.35
2018-11-22T06:35:57.423Z,102601.88
2018-11-22T06:38:45.692Z,102600.06
2018-11-22T06:41:15.453Z,102597.71
2018-11-22T06:43:45.051Z,102608.30
2018-11-22T06:46:14.684Z,102609.22
2018-11-22T06:49:03.345Z,102611.03
2018-11-22T06:51:33.215Z,102605.73
2018-11-22T06:54:02.775Z,102597.09
2018-11-22T06:56:32.594Z,102587.55
2018-11-22T06:59:02.558Z,102587.17
2018-11-22T07:01:32.129Z,102589.05
2018-11-22T07:04:01.762Z,102594.96
2018-11-22T07:06:31.379Z,102595.49
2018-11-22T07:09:00.990Z,102593.45
2018-11-22T07:11:30.585Z,102596.03
2018-11-22T07:14:00.258Z,102599.52
2018-11-22T07:16:29.840Z,102599.20
2018-11-22T07:18:59.413Z,102594.27
2018-11-22T07:21:29.012Z,102590.03
2018-11-22T07:23:58.595Z,102588.21
2018-11-22T07:26:46.851Z,102598.52
2018-11-22T07:29:16.466Z,102602.16
2018-11-22T07:31:46.042Z,102606.17
2018-11-22T07:34:15.664Z,102542.72
2018-11-22T07:36:45.245Z,102582.37
2018-11-22T07:39:33.488Z,102587.45
2018-11-22T07:42:03.109Z,102570.65
2018-11-22T07:44:32.693Z,102577.62
2018-11-22T07:47:02.353Z,102583.30
2018-11-22T07:49:32.315Z,102586.56
2018-11-22T07:52:20.568Z,102590.20
2018-11-22T07:55:08.931Z,102594.45
2018-11-22T07:57:38.652Z,102586.12
2018-11-22T08:00:11.616Z,102573.32
2018-11-22T08:02:59.901Z,102577.94
2018-11-22T08:05:30.406Z,102576.13
2018-11-22T08:08:00.014Z,102569.30
2018-11-22T08:10:29.652Z,102565.37
2018-11-22T08:12:59.934Z,102563.17
2018-11-22T08:15:31.282Z,102563.92
2018-11-22T08:18:01.098Z,102563.46
2018-11-22T08:20:31.192Z,102575.21
2018-11-22T08:23:02.013Z,102587.64
2018-11-22T08:25:32.709Z,102574.30
2018-11-22T08:28:02.350Z,102576.50
2018-11-22T08:30:32.003Z,102589.09
2018-11-22T08:33:01.901Z,102599.47
2018-11-22T08:35:31.496Z,102595.98
2018-11-22T08:38:01.064Z,102590.98
2018-11-22T08:40:31.341Z,102577.12
2018-11-22T08:43:01.269Z,102585.30
2018-11-22T08:45:31.575Z,102580.91
2018-11-22T08:48:20.038Z,102575.07
2018-11-22T08:50:49.638Z,102572.86
2018-11-22T08:53:19.219Z,102565.95
2018-11-22T08:55:48.839Z,102568.00
2018-11-22T08:58:19.491Z,102575.05
2018-11-22T09:00:48.019Z,102575.81
2018-11-22T09:03:17.626Z,102563.55
2018-11-22T09:05:47.521Z,102561.58
2018-11-22T09:08:17.104Z,102558.78
2018-11-22T09:10:46.712Z,102578.86
2018-11-22T09:13:16.296Z,102565.67
2018-11-22T09:15:45.881Z,102553.17
2018-11-22T09:18:34.155Z,102561.97
2018-11-22T09:21:03.733Z,102559.09
2018-11-22T09:23:38.470Z,102560.06
2018-11-22T09:26:02.909Z,102560.83
2018-11-22T09:28:32.491Z,102559.00
2018-11-22T09:31:02.062Z,102574.47
2018-11-22T09:33:31.694Z,102566.44
2018-11-22T09:36:20.660Z,102558.86
2018-11-22T09:38:50.415Z,102563.86
2018-11-22T09:44:10.283Z,102556.59
2018-11-22T09:46:40.000Z,102561.59
2018-11-22T09:49:09.990Z,102448.06
2018-11-22T09:51:40.095Z,102562.57
2018-11-22T09:54:09.690Z,102567.20
2018-11-22T09:56:39.270Z,102568.78
2018-11-22T09:59:08.924Z,102566.05
2018-11-22T10:01:38.459Z,102559.84
2018-11-22T10:04:08.077Z,102563.25
2018-11-22T10:06:38.165Z,102570.30
2018-11-22T10:09:27.679Z,102573.64
2018-11-22T10:11:57.306Z,102575.08
2018-11-22T10:14:26.881Z,102584.02
2018-11-22T10:16:56.501Z,102586.22
2018-11-22T10:19:26.105Z,102582.13
2018-11-22T10:21:55.943Z,102574.32
2018-11-22T10:24:25.591Z,102572.05
2018-11-22T10:27:13.737Z,102559.84
2018-11-22T10:30:09.134Z,102561.36
2018-11-22T10:32:39.806Z,102555.59
2018-11-22T10:35:11.132Z,102554.16
2018-11-22T10:37:41.058Z,102553.78
2018-11-22T10:40:29.590Z,102552.27
2018-11-22T10:43:00.396Z,102547.88
2018-11-22T10:45:31.446Z,102544.08
2018-11-22T10:48:02.621Z,102542.48
2018-11-22T10:50:33.420Z,102537.64
2018-11-22T10:53:03.123Z,102551.50
2018-11-22T10:55:51.380Z,102542.03
2018-11-22T10:58:21.101Z,102549.30
2018-11-22T11:01:09.345Z,102539.23
2018-11-22T11:03:57.576Z,102540.97
2018-11-22T11:06:46.066Z,102535.44
2018-11-22T11:09:15.738Z,102540.36
2018-11-22T11:12:03.984Z,102539.45
2018-11-22T11:14:33.599Z,102541.50
2018-11-22T11:17:03.180Z,102538.39
2018-11-22T11:19:32.784Z,102536.49
2018-11-22T11:22:02.376Z,102535.05
2018-11-22T11:24:32.502Z,102536.19
2018-11-22T11:27:01.774Z,102529.81
2018-11-22T11:29:31.350Z,102533.98
2018-11-22T11:32:00.934Z,102536.80
2018-11-22T11:34:30.570Z,102532.63
2018-11-22T11:37:00.161Z,102526.09
2018-11-22T11:39:30.181Z,102527.28
2018-11-22T11:41:59.781Z,102517.59
2018-11-22T11:44:29.363Z,102513.55
2018-11-22T11:46:58.940Z,102516.12
2018-11-22T11:52:04.166Z,102513.91
2018-11-22T11:54:52.981Z,102517.83
2018-11-22T11:57:22.560Z,102509.09
2018-11-22T11:59:52.124Z,102509.53
2018-11-22T12:02:21.732Z,102510.50
2018-11-22T12:05:09.939Z,102504.80
2018-11-22T12:07:58.455Z,102505.52
2018-11-22T12:10:39.664Z,102505.11
2018-11-22T12:13:09.397Z,102508.74
2018-11-22T12:15:38.989Z,102512.38
2018-11-22T12:18:08.610Z,102516.74
2018-11-22T12:20:38.281Z,102513.88
2018-11-22T12:23:07.852Z,102511.38
2018-11-22T12:25:37.442Z,102516.45
2018-11-22T12:28:25.931Z,102523.22
2018-11-22T12:30:55.575Z,102515.57
2018-11-22T12:33:43.774Z,102520.20
2018-11-22T12:36:32.010Z,102521.11
2018-11-22T12:39:01.618Z,102510.95
2018-11-22T12:41:31.326Z,102511.19
2018-11-22T12:44:01.138Z,102508.91
2018-11-22T12:46:31.003Z,102512.70
2018-11-22T12:49:00.662Z,102503.30
2018-11-22T12:51:30.181Z,102497.39
2018-11-22T12:54:18.438Z,102500.80
2018-11-22T12:56:48.122Z,102491.63
2018-11-22T12:59:17.967Z,102497.61
2018-11-22T13:02:06.581Z,102494.05
2018-11-22T13:04:36.157Z,102503.90
2018-11-22T13:07:05.738Z,102499.81
2018-11-22T13:09:35.358Z,102496.48
2018-11-22T13:12:04.963Z,102496.41
2018-11-22T13:14:34.834Z,102496.80
2018-11-22T13:17:04.469Z,102496.56
2018-11-22T13:19:34.042Z,102495.66
2018-11-22T13:22:03.627Z,102493.76
2018-11-22T13:24:33.261Z,102496.71
2018-11-22T13:27:02.837Z,102493.00
2018-11-22T13:29:51.491Z,102488.38
2018-11-22T13:32:21.632Z,102492.47
2018-11-22T13:34:50.847Z,102488.16
2018-11-22T13:37:39.471Z,102494.97
2018-11-22T13:40:10.960Z,102500.35
2018-11-22T13:42:41.333Z,102502.25
2018-11-22T13:45:15.866Z,102498.61
2018-11-22T13:47:46.393Z,102501.87
2018-11-22T13:50:41.684Z,102503.69
2018-11-22T13:53:06.375Z,102502.25
2018-11-22T13:55:36.046Z,102500.73
2018-11-22T13:58:05.869Z,102500.88
2018-11-22T14:00:35.910Z,102508.77
2018-11-22T14:03:06.850Z,102507.48
2018-11-22T14:05:36.547Z,102513.92
2018-11-22T14:08:08.601Z,102516.11
2018-11-22T14:10:38.166Z,102516.42
2018-11-22T14:13:07.818Z,102517.33
2018-11-22T14:15:37.637Z,102508.16
2018-11-22T14:18:07.774Z,102511.95
2018-11-22T14:20:37.829Z,102504.97
2018-11-22T14:23:07.415Z,102509.22
2018-11-22T14:25:37.016Z,102512.70
2018-11-22T14:28:25.380Z,102501.48
2018-11-22T14:31:14.310Z,102512.33
2018-11-22T14:33:44.064Z,102509.22
2018-11-22T14:36:13.770Z,102497.24
2018-11-22T14:38:43.544Z,102501.11
2018-11-22T14:41:13.141Z,102501.48
2018-11-22T14:43:42.725Z,102494.67
2018-11-22T14:46:12.538Z,102494.67
2018-11-22T14:48:42.158Z,102504.45
2018-11-22T14:51:32.429Z,102493.83
2018-11-22T14:54:21.343Z,102497.70
2018-11-22T14:56:50.926Z,102500.50
2018-11-22T14:59:20.540Z,102493.53
2018-11-22T15:01:50.672Z,102488.16
2018-11-22T15:04:20.297Z,102489.97
2018-11-22T15:06:49.874Z,102488.91
2018-11-22T15:09:38.407Z,102495.50
2018-11-22T15:12:08.000Z,102492.02
2018-11-22T15:14:37.933Z,102499.37
2018-11-22T15:17:08.085Z,102500.13
2018-11-22T15:19:37.676Z,102493.16
2018-11-22T15:22:07.403Z,102495.73
2018-11-22T15:24:37.039Z,102495.20
2018-11-22T15:27:06.788Z,102492.70
2018-11-22T15:29:36.375Z,102486.48
2018-11-22T15:32:24.743Z,102495.88
2018-11-22T15:35:31.865Z,102493.38
2018-11-22T15:38:13.173Z,102490.42
2018-11-22T15:40:42.760Z,102493.84
2018-11-22T15:43:31.317Z,102488.00
2018-11-22T15:48:54.462Z,102491.11
2018-11-22T15:51:24.430Z,102488.83
2018-11-22T15:53:54.033Z,102487.08
2018-11-22T15:56:24.197Z,102486.77
2018-11-22T15:58:53.829Z,102494.19
2018-11-22T16:01:23.398Z,102483.97
2018-11-22T16:04:11.650Z,102485.86
2018-11-22T16:07:00.203Z,102497.28
2018-11-22T16:09:29.851Z,102499.48
2018-11-22T16:11:59.430Z,102488.50
2018-11-22T16:14:29.045Z,102490.01
2018-11-22T16:16:58.686Z,102493.19
2018-11-22T16:19:28.267Z,102501.28
2018-11-22T16:21:57.853Z,102498.55
2018-11-22T16:24:27.603Z,102493.32
2018-11-22T16:26:57.417Z,102501.48
2018-11-22T16:29:27.039Z,102504.87
2018-11-22T16:31:56.687Z,102505.16
2018-11-22T16:34:26.351Z,102510.75
2018-11-22T16:36:55.982Z,102509.38
2018-11-22T16:39:25.554Z,102501.19
2018-11-22T16:41:55.135Z,102510.25
2018-11-22T16:44:24.725Z,102502.06
2018-11-22T16:46:54.365Z,102502.13
2018-11-22T16:49:24.148Z,102504.38
2018-11-22T16:51:53.756Z,102500.74
2018-11-22T16:54:23.464Z,102498.61
2018-11-22T16:56:53.065Z,102505.25
2018-11-22T16:59:22.652Z,102497.59
2018-11-22T17:01:52.603Z,102505.53
2018-11-22T17:04:22.195Z,102498.41
2018-11-22T17:06:51.779Z,102506.56
2018-11-22T17:09:21.416Z,102502.01
2018-11-22T17:11:51.021Z,102499.28
2018-11-22T17:14:20.607Z,102355.81
2018-11-22T17:17:08.882Z,102478.63
2018-11-22T17:19:49.895Z,102505.77
2018-11-22T17:22:19.507Z,102497.52
2018-11-22T17:25:09.689Z,102498.27
2018-11-22T17:27:39.376Z,102496.07
2018-11-22T17:30:47.924Z,102499.02
2018-11-22T17:33:17.543Z,102501.97
2018-11-22T17:35:47.241Z,102500.14
2018-11-22T17:38:16.907Z,102494.31
2018-11-22T17:40:47.954Z,102497.09
2018-11-22T17:43:17.737Z,102498.06
2018-11-22T17:48:37.606Z,102500.15
2018-11-22T17:51:07.271Z,102485.42
2018-11-22T17:53:55.497Z,102494.58
2018-11-22T17:56:25.086Z,102489.92
2018-11-22T17:58:54.677Z,102490.08
2018-11-22T18:01:24.594Z,102490.23
2018-11-22T18:03:54.546Z,102487.66
2018-11-22T18:06:24.130Z,102486.38
2018-11-22T18:08:53.756Z,102484.34
2018-11-22T18:11:23.333Z,102482.73
2018-11-22T18:13:52.912Z,102482.73
2018-11-22T18:16:22.613Z,102487.13
2018-11-22T18:18:52.213Z,102485.84
2018-11-22T18:21:21.803Z,102479.58
2018-11-22T18:23:51.428Z,102478.30
2018-11-22T18:26:21.018Z,102486.16
2018-11-22T18:28:50.749Z,102488.73
2018-11-22T18:31:20.347Z,102486.00
2018-11-22T18:33:49.933Z,102488.58
2018-11-22T18:36:19.747Z,102483.65
2018-11-22T18:39:09.109Z,102478.89
2018-11-22T18:41:50.346Z,102483.11
2018-11-22T18:44:19.987Z,102478.72
2018-11-22T18:46:49.613Z,102479.42
2018-11-22T18:49:19.213Z,102479.42
2018-11-22T18:51:48.837Z,102473.31
2018-11-22T18:54:18.410Z,102480.27
2018-11-22T18:56:48.026Z,102473.56
2018-11-22T18:59:17.747Z,102475.70
2018-11-22T19:01:47.831Z,102478.06
2018-11-22T19:04:17.405Z,102480.79
2018-11-22T19:06:47.059Z,102479.22
2018-11-22T19:09:16.769Z,102480.08
2018-11-22T19:11:46.471Z,102469.34
2018-11-22T19:14:16.595Z,102476.53
2018-11-22T19:16:46.271Z,102483.87
2018-11-22T19:19:15.835Z,102483.71
2018-11-22T19:22:04.437Z,102485.00
2018-11-22T19:24:34.030Z,102482.64
2018-11-22T19:27:03.653Z,102483.93
2018-11-22T19:29:33.364Z,102483.93
2018-11-22T19:32:02.960Z,102491.11
2018-11-22T19:34:32.562Z,102484.90
2018-11-22T19:37:02.466Z,102491.55
2018-11-22T19:39:32.115Z,102483.61
2018-11-22T19:42:01.743Z,102480.67
2018-11-22T19:44:32.040Z,102479.75
2018-11-22T19:47:20.288Z,102474.77
2018-11-22T19:49:50.085Z,102477.72
2018-11-22T19:52:19.749Z,102486.19
2018-11-22T19:54:49.362Z,102483.08
2018-11-22T19:57:19.077Z,102489.67
2018-11-22T19:59:48.686Z,102501.23
2018-11-22T20:02:18.309Z,102501.08
2018-11-22T20:07:23.623Z,102509.92
2018-11-22T20:10:00.751Z,102504.09
2018-11-22T20:12:30.348Z,102501.73
2018-11-22T20:14:59.995Z,102504.30
2018-11-22T20:17:29.646Z,102504.14
2018-11-22T20:19:59.242Z,102506.72
2018-11-22T20:22:29.324Z,102510.58
2018-11-22T20:25:17.590Z,102506.18
2018-11-22T20:27:47.291Z,102508.75
2018-11-22T20:30:36.418Z,102502.70
2018-11-22T20:33:06.026Z,102508.53
2018-11-22T20:35:35.625Z,102506.66
2018-11-22T20:38:05.501Z,102502.43
2018-11-22T20:40:35.087Z,102498.88
2018-11-22T20:43:23.887Z,102500.17
2018-11-22T20:45:53.475Z,102498.51
2018-11-22T20:48:23.088Z,102492.45
2018-11-22T20:50:52.721Z,102493.37
2018-11-22T20:53:22.307Z,102493.96
2018-11-22T20:55:52.214Z,102499.64
2018-11-22T20:58:40.730Z,102504.03
2018-11-22T21:01:10.321Z,102501.45
2018-11-22T21:03:39.898Z,102501.45
2018-11-22T21:06:09.551Z,102503.66
2018-11-22T21:08:39.150Z,102507.14
2018-11-22T21:11:27.411Z,102504.19
2018-11-22T21:13:57.164Z,102501.56
2018-11-22T21:16:45.438Z,102495.50
2018-11-22T21:19:15.050Z,102494.22
2018-11-22T21:21:44.635Z,102493.47
2018-11-22T21:24:14.261Z,102490.14
2018-11-22T21:26:43.888Z,102493.25
2018-11-22T21:29:32.145Z,102498.55
2018-11-22T21:32:01.738Z,102494.69
2018-11-22T21:34:31.337Z,102489.17
2018-11-22T21:37:01.053Z,102494.84
2018-11-22T21:39:49.369Z,102501.81
2018-11-22T21:42:18.979Z,102498.70
2018-11-22T21:45:07.213Z,102497.80
2018-11-22T21:47:36.854Z,102497.95
2018-11-22T21:50:07.409Z,102496.83
2018-11-22T21:52:37.295Z,102499.55
2018-11-22T21:55:08.780Z,102504.64
2018-11-22T21:57:39.647Z,102500.56
2018-11-22T22:00:22.612Z,102505.42
2018-11-22T22:02:54.513Z,102500.97
2018-11-22T22:05:24.118Z,102501.88
2018-11-22T22:07:53.870Z,102506.11
2018-11-22T22:10:25.790Z,102507.40
2018-11-22T22:12:55.445Z,102497.11
2018-11-22T22:15:26.585Z,102500.91
2018-11-22T22:17:56.191Z,102499.39
2018-11-22T22:20:27.293Z,102505.83
2018-11-22T22:22:56.984Z,102499.61
2018-11-22T22:25:27.323Z,102496.05
2018-11-22T22:28:15.642Z,102498.30
2018-11-22T22:33:38.980Z,102496.80
2018-11-22T22:36:08.802Z,102500.12
2018-11-22T22:38:57.512Z,102502.59
2018-11-22T22:41:38.308Z,102498.80
2018-11-22T22:44:08.167Z,102498.42
2018-11-22T22:46:37.766Z,102494.50
2018-11-22T22:49:26.108Z,102497.61
2018-11-22T22:51:55.640Z,102493.16
2018-11-22T22:54:25.243Z,102488.39
2018-11-22T22:56:54.845Z,102491.12
2018-11-22T22:59:24.413Z,102489.45
2018-11-22T23:01:53.984Z,102483.77
2018-11-22T23:04:42.513Z,102485.06
2018-11-22T23:07:12.102Z,102491.12
2018-11-22T23:09:41.709Z,102487.16
2018-11-22T23:12:11.346Z,102484.34
2018-11-22T23:14:40.943Z,102488.11
2018-11-22T23:17:10.738Z,102484.31
2018-11-22T23:19:40.343Z,102493.30
2018-11-22T23:22:10.018Z,102486.12
2018-11-22T23:24:40.449Z,102482.58
2018-11-22T23:27:10.115Z,102493.37
2018-11-22T23:29:58.338Z,102491.41
2018-11-22T23:32:27.974Z,102496.29
2018-11-22T23:34:57.559Z,102491.68
2018-11-22T23:37:27.151Z,102494.30
2018-11-22T23:39:56.988Z,102492.95
2018-11-22T23:42:45.317Z,102498.35
2018-11-22T23:45:28.285Z,102495.88
2018-11-22T23:47:57.865Z,102494.87
2018-11-22T23:50:28.807Z,102494.87
2018-11-22T23:52:59.345Z,102490.58
2018-11-22T23:55:29.168Z,102487.57
2018-11-22T23:57:58.786Z,102489.67
